Terminal Aerodrome Forecast
Issued by NWS

Home | Current Version | Previous Version | Text Only | Print | Product List | Glossary On
Versions: 1 2 3 4 5 6 7 8 9 10 11 12 13 14 15 16 17 18 19 20 21 22 23 24 25 26 27 28 29 30 31 32 33 34 35 36 37 38 39 40 41 42 43 44 45
298
FTUS43 KDDC 242050 AAA
TAFGCK
TAF AMD
KGCK 242050Z 2421/2518 36024G34KT P6SM VCSH OVC009
     FM250000 35025G35KT P6SM BKN008
     FM250400 35015G25KT P6SM BKN020
     FM250900 34015KT P6SM SCT050=

USA.gov is the U.S. government's official web portal to all federal, state and local government web resources and services.